sensor_id;sensor_type;location;lat;lon;timestamp;temperature;humidity
21622;DHT22;10973;46.706;12.340;2022-07-06T00:06:29;13.60;99.90
21622;DHT22;10973;46.706;12.340;2022-07-06T00:08:56;13.50;99.90
21622;DHT22;10973;46.706;12.340;2022-07-06T00:11:25;13.40;99.90
21622;DHT22;10973;46.706;12.340;2022-07-06T00:22:38;13.30;99.90
21622;DHT22;10973;46.706;12.340;2022-07-06T00:25:06;13.50;99.90
21622;DHT22;10973;46.706;12.340;2022-07-06T00:27:34;13.40;99.90
21622;DHT22;10973;46.706;12.340;2022-07-06T00:34:11;13.30;99.90
21622;DHT22;10973;46.706;12.340;2022-07-06T00:36:39;13.20;99.90
21622;DHT22;10973;46.706;12.340;2022-07-06T00:43:03;13.20;99.90
21622;DHT22;10973;46.706;12.340;2022-07-06T00:45:30;13.10;99.90
21622;DHT22;10973;46.706;12.340;2022-07-06T00:47:57;13.20;99.90
21622;DHT22;10973;46.706;12.340;2022-07-06T00:50:25;13.10;99.90
21622;DHT22;10973;46.706;12.340;2022-07-06T00:52:56;13.00;99.90
21622;DHT22;10973;46.706;12.340;2022-07-06T00:55:30;12.90;99.90
21622;DHT22;10973;46.706;12.340;2022-07-06T01:07:08;12.80;99.90
21622;DHT22;10973;46.706;12.340;2022-07-06T01:09:36;12.80;99.90
21622;DHT22;10973;46.706;12.340;2022-07-06T01:12:04;12.80;99.90
21622;DHT22;10973;46.706;12.340;2022-07-06T01:14:32;12.90;99.90
21622;DHT22;10973;46.706;12.340;2022-07-06T01:21:13;12.90;99.90
21622;DHT22;10973;46.706;12.340;2022-07-06T01:23:46;12.70;99.90
21622;DHT22;10973;46.706;12.340;2022-07-06T01:26:20;12.60;99.90
21622;DHT22;10973;46.706;12.340;2022-07-06T01:28:51;12.60;99.90
21622;DHT22;10973;46.706;12.340;2022-07-06T01:35:19;12.50;99.90
21622;DHT22;10973;46.706;12.340;2022-07-06T01:37:46;12.50;99.90
21622;DHT22;10973;46.706;12.340;2022-07-06T01:40:13;12.50;99.90
21622;DHT22;10973;46.706;12.340;2022-07-06T01:42:41;12.40;99.90
21622;DHT22;10973;46.706;12.340;2022-07-06T01:45:08;12.40;99.90
21622;DHT22;10973;46.706;12.340;2022-07-06T01:47:36;12.30;99.90
21622;DHT22;10973;46.706;12.340;2022-07-06T01:50:08;12.40;99.90
21622;DHT22;10973;46.706;12.340;2022-07-06T01:52:36;12.20;99.90
21622;DHT22;10973;46.706;12.340;2022-07-06T01:59:13;12.10;99.90
21622;DHT22;10973;46.706;12.340;2022-07-06T02:01:40;12.10;99.90
21622;DHT22;10973;46.706;12.340;2022-07-06T02:08:07;12.30;99.90
21622;DHT22;10973;46.706;12.340;2022-07-06T02:10:34;12.00;99.90
21622;DHT22;10973;46.706;12.340;2022-07-06T02:13:01;12.00;99.90
21622;DHT22;10973;46.706;12.340;2022-07-06T02:15:29;12.00;99.90
21622;DHT22;10973;46.706;12.340;2022-07-06T02:17:57;12.10;99.90
21622;DHT22;10973;46.706;12.340;2022-07-06T02:28:44;11.80;99.90
21622;DHT22;10973;46.706;12.340;2022-07-06T02:31:22;11.80;99.90
21622;DHT22;10973;46.706;12.340;2022-07-06T02:33:50;12.00;99.90
21622;DHT22;10973;46.706;12.340;2022-07-06T02:40:28;11.70;99.90
21622;DHT22;10973;46.706;12.340;2022-07-06T02:46:55;11.70;99.90
21622;DHT22;10973;46.706;12.340;2022-07-06T02:55:59;11.60;99.90
21622;DHT22;10973;46.706;12.340;2022-07-06T02:58:26;11.70;99.90
21622;DHT22;10973;46.706;12.340;2022-07-06T03:00:54;11.70;99.90
21622;DHT22;10973;46.706;12.340;2022-07-06T03:03:21;11.60;99.90
21622;DHT22;10973;46.706;12.340;2022-07-06T03:09:59;11.60;99.90
21622;DHT22;10973;46.706;12.340;2022-07-06T03:12:26;11.60;99.90
21622;DHT22;10973;46.706;12.340;2022-07-06T03:17:21;11.50;99.90
21622;DHT22;10973;46.706;12.340;2022-07-06T03:31:31;11.40;99.90
21622;DHT22;10973;46.706;12.340;2022-07-06T03:34:07;11.40;99.90
21622;DHT22;10973;46.706;12.340;2022-07-06T03:36:35;11.40;99.90
21622;DHT22;10973;46.706;12.340;2022-07-06T03:46:30;11.30;99.90
21622;DHT22;10973;46.706;12.340;2022-07-06T03:48:57;11.30;99.90
21622;DHT22;10973;46.706;12.340;2022-07-06T05:51:20;12.20;99.90
21622;DHT22;10973;46.706;12.340;2022-07-06T05:53:47;12.30;99.90
21622;DHT22;10973;46.706;12.340;2022-07-06T05:56:15;12.20;99.90
21622;DHT22;10973;46.706;12.340;2022-07-06T05:58:42;12.40;99.90
21622;DHT22;10973;46.706;12.340;2022-07-06T06:08:32;12.90;99.90
21622;DHT22;10973;46.706;12.340;2022-07-06T06:10:59;12.90;99.90
21622;DHT22;10973;46.706;12.340;2022-07-06T06:13:31;13.00;99.90
21622;DHT22;10973;46.706;12.340;2022-07-06T06:15:58;13.10;99.90
21622;DHT22;10973;46.706;12.340;2022-07-06T06:18:26;13.30;99.90
21622;DHT22;10973;46.706;12.340;2022-07-06T06:20:54;13.30;99.90
21622;DHT22;10973;46.706;12.340;2022-07-06T06:23:21;13.40;99.90
21622;DHT22;10973;46.706;12.340;2022-07-06T06:25:48;13.50;99.90
21622;DHT22;10973;46.706;12.340;2022-07-06T06:28:15;13.60;99.90
21622;DHT22;10973;46.706;12.340;2022-07-06T06:30:43;13.60;99.90
21622;DHT22;10973;46.706;12.340;2022-07-06T06:33:18;13.70;99.90
21622;DHT22;10973;46.706;12.340;2022-07-06T06:35:51;13.90;99.90
21622;DHT22;10973;46.706;12.340;2022-07-06T06:38:21;13.90;99.90
21622;DHT22;10973;46.706;12.340;2022-07-06T06:40:50;14.00;99.90
21622;DHT22;10973;46.706;12.340;2022-07-06T06:43:17;14.10;99.90
21622;DHT22;10973;46.706;12.340;2022-07-06T06:45:44;14.20;99.90
21622;DHT22;10973;46.706;12.340;2022-07-06T06:48:12;14.30;99.90
21622;DHT22;10973;46.706;12.340;2022-07-06T06:50:44;14.30;99.90
21622;DHT22;10973;46.706;12.340;2022-07-06T06:53:12;14.40;99.90
21622;DHT22;10973;46.706;12.340;2022-07-06T06:55:39;14.50;99.90
21622;DHT22;10973;46.706;12.340;2022-07-06T06:58:06;14.60;99.90
21622;DHT22;10973;46.706;12.340;2022-07-06T07:00:34;14.60;99.90
21622;DHT22;10973;46.706;12.340;2022-07-06T07:03:01;14.70;99.90
21622;DHT22;10973;46.706;12.340;2022-07-06T07:05:28;14.80;99.90
21622;DHT22;10973;46.706;12.340;2022-07-06T07:07:56;14.90;99.90
21622;DHT22;10973;46.706;12.340;2022-07-06T07:10:31;15.00;99.90
21622;DHT22;10973;46.706;12.340;2022-07-06T07:37:37;15.70;99.90
21622;DHT22;10973;46.706;12.340;2022-07-06T07:40:05;15.80;99.90
21622;DHT22;10973;46.706;12.340;2022-07-06T07:42:33;15.80;99.90
21622;DHT22;10973;46.706;12.340;2022-07-06T07:47:27;16.00;99.90
21622;DHT22;10973;46.706;12.340;2022-07-06T07:49:55;16.20;99.90
21622;DHT22;10973;46.706;12.340;2022-07-06T08:32:06;17.40;99.90
21622;DHT22;10973;46.706;12.340;2022-07-06T08:34:53;17.40;99.90
21622;DHT22;10973;46.706;12.340;2022-07-06T08:37:20;17.30;99.90
21622;DHT22;10973;46.706;12.340;2022-07-06T08:39:48;17.40;99.90
21622;DHT22;10973;46.706;12.340;2022-07-06T08:42:16;17.50;99.60
21622;DHT22;10973;46.706;12.340;2022-07-06T08:44:44;17.60;94.90
21622;DHT22;10973;46.706;12.340;2022-07-06T08:47:13;17.60;95.40
21622;DHT22;10973;46.706;12.340;2022-07-06T08:49:42;17.70;93.60
21622;DHT22;10973;46.706;12.340;2022-07-06T08:52:10;17.80;93.30
21622;DHT22;10973;46.706;12.340;2022-07-06T08:54:38;17.80;92.30
21622;DHT22;10973;46.706;12.340;2022-07-06T08:57:07;17.80;92.90
21622;DHT22;10973;46.706;12.340;2022-07-06T08:59:34;17.80;92.80
21622;DHT22;10973;46.706;12.340;2022-07-06T09:02:03;17.80;93.50
21622;DHT22;10973;46.706;12.340;2022-07-06T09:04:33;17.90;91.80
21622;DHT22;10973;46.706;12.340;2022-07-06T09:07:03;18.00;92.00
21622;DHT22;10973;46.706;12.340;2022-07-06T09:09:31;18.00;92.40
21622;DHT22;10973;46.706;12.340;2022-07-06T09:11:58;18.00;92.30
21622;DHT22;10973;46.706;12.340;2022-07-06T09:14:30;18.00;91.70
21622;DHT22;10973;46.706;12.340;2022-07-06T09:17:03;18.20;90.70
21622;DHT22;10973;46.706;12.340;2022-07-06T09:19:33;18.30;91.10
21622;DHT22;10973;46.706;12.340;2022-07-06T09:22:02;18.30;91.40
21622;DHT22;10973;46.706;12.340;2022-07-06T09:24:31;18.20;90.70
21622;DHT22;10973;46.706;12.340;2022-07-06T09:26:59;18.20;90.90
21622;DHT22;10973;46.706;12.340;2022-07-06T09:29:30;18.30;90.70
21622;DHT22;10973;46.706;12.340;2022-07-06T09:32:03;18.40;89.40
21622;DHT22;10973;46.706;12.340;2022-07-06T09:34:41;18.40;88.10
21622;DHT22;10973;46.706;12.340;2022-07-06T09:37:08;18.40;88.40
21622;DHT22;10973;46.706;12.340;2022-07-06T09:39:36;18.50;87.30
21622;DHT22;10973;46.706;12.340;2022-07-06T09:42:04;18.60;88.50
21622;DHT22;10973;46.706;12.340;2022-07-06T09:52:07;19.00;96.60
21622;DHT22;10973;46.706;12.340;2022-07-06T09:54:37;19.00;94.40
21622;DHT22;10973;46.706;12.340;2022-07-06T09:57:06;19.00;93.90
21622;DHT22;10973;46.706;12.340;2022-07-06T09:59:36;19.00;92.20
21622;DHT22;10973;46.706;12.340;2022-07-06T10:02:06;19.00;90.80
21622;DHT22;10973;46.706;12.340;2022-07-06T10:04:34;19.00;90.70
21622;DHT22;10973;46.706;12.340;2022-07-06T10:07:02;19.10;90.90
21622;DHT22;10973;46.706;12.340;2022-07-06T10:09:31;19.10;87.50
21622;DHT22;10973;46.706;12.340;2022-07-06T10:12:00;19.20;90.10
21622;DHT22;10973;46.706;12.340;2022-07-06T10:14:33;19.30;83.50
21622;DHT22;10973;46.706;12.340;2022-07-06T10:17:03;19.30;83.10
21622;DHT22;10973;46.706;12.340;2022-07-06T10:19:31;19.40;83.40
21622;DHT22;10973;46.706;12.340;2022-07-06T10:22:03;19.30;78.00
21622;DHT22;10973;46.706;12.340;2022-07-06T10:24:32;19.40;79.80
21622;DHT22;10973;46.706;12.340;2022-07-06T10:26:59;19.50;83.40
21622;DHT22;10973;46.706;12.340;2022-07-06T10:29:26;19.60;82.30
21622;DHT22;10973;46.706;12.340;2022-07-06T10:31:57;19.70;76.10
21622;DHT22;10973;46.706;12.340;2022-07-06T10:34:26;19.80;80.50
21622;DHT22;10973;46.706;12.340;2022-07-06T10:36:53;19.80;84.00
21622;DHT22;10973;46.706;12.340;2022-07-06T10:39:35;19.80;80.90
21622;DHT22;10973;46.706;12.340;2022-07-06T10:42:04;19.90;80.90
21622;DHT22;10973;46.706;12.340;2022-07-06T10:44:31;19.90;80.70
21622;DHT22;10973;46.706;12.340;2022-07-06T10:46:59;20.00;81.20
21622;DHT22;10973;46.706;12.340;2022-07-06T10:49:27;20.10;80.10
21622;DHT22;10973;46.706;12.340;2022-07-06T10:52:17;20.20;79.80
21622;DHT22;10973;46.706;12.340;2022-07-06T10:54:46;20.30;82.10
21622;DHT22;10973;46.706;12.340;2022-07-06T10:57:14;20.30;82.40
21622;DHT22;10973;46.706;12.340;2022-07-06T11:00:00;20.50;77.60
21622;DHT22;10973;46.706;12.340;2022-07-06T11:02:38;20.60;77.90
21622;DHT22;10973;46.706;12.340;2022-07-06T11:05:11;20.70;76.90
21622;DHT22;10973;46.706;12.340;2022-07-06T11:08:18;20.80;78.00
21622;DHT22;10973;46.706;12.340;2022-07-06T11:10:49;20.80;74.50
21622;DHT22;10973;46.706;12.340;2022-07-06T11:13:29;21.00;74.10
21622;DHT22;10973;46.706;12.340;2022-07-06T11:16:05;21.10;71.50
21622;DHT22;10973;46.706;12.340;2022-07-06T11:18:40;21.30;72.10
21622;DHT22;10973;46.706;12.340;2022-07-06T11:21:22;21.30;70.70
21622;DHT22;10973;46.706;12.340;2022-07-06T11:23:51;21.40;72.40
21622;DHT22;10973;46.706;12.340;2022-07-06T11:26:18;21.40;69.90
21622;DHT22;10973;46.706;12.340;2022-07-06T11:28:46;21.50;71.50
21622;DHT22;10973;46.706;12.340;2022-07-06T11:31:14;21.60;68.20
21622;DHT22;10973;46.706;12.340;2022-07-06T11:33:46;21.80;70.70
21622;DHT22;10973;46.706;12.340;2022-07-06T11:36:17;21.90;68.00
21622;DHT22;10973;46.706;12.340;2022-07-06T11:38:48;22.00;69.70
21622;DHT22;10973;46.706;12.340;2022-07-06T11:41:17;22.10;68.20
21622;DHT22;10973;46.706;12.340;2022-07-06T11:43:46;22.20;68.40
21622;DHT22;10973;46.706;12.340;2022-07-06T11:49:04;22.40;64.70
21622;DHT22;10973;46.706;12.340;2022-07-06T11:51:35;22.60;66.30
21622;DHT22;10973;46.706;12.340;2022-07-06T11:54:12;22.70;64.40
21622;DHT22;10973;46.706;12.340;2022-07-06T11:59:24;22.90;65.60
21622;DHT22;10973;46.706;12.340;2022-07-06T12:07:09;23.30;63.80
21622;DHT22;10973;46.706;12.340;2022-07-06T12:09:41;23.40;61.10
21622;DHT22;10973;46.706;12.340;2022-07-06T12:12:10;23.60;62.60
21622;DHT22;10973;46.706;12.340;2022-07-06T12:14:39;23.80;59.00
21622;DHT22;10973;46.706;12.340;2022-07-06T12:17:09;23.80;60.50
21622;DHT22;10973;46.706;12.340;2022-07-06T12:19:39;23.90;65.40
21622;DHT22;10973;46.706;12.340;2022-07-06T12:22:08;24.10;64.90
21622;DHT22;10973;46.706;12.340;2022-07-06T12:24:37;24.20;62.50
21622;DHT22;10973;46.706;12.340;2022-07-06T12:27:11;24.30;60.90
21622;DHT22;10973;46.706;12.340;2022-07-06T12:29:39;24.40;60.20
21622;DHT22;10973;46.706;12.340;2022-07-06T12:32:13;24.50;61.20
21622;DHT22;10973;46.706;12.340;2022-07-06T12:34:41;24.60;60.30
21622;DHT22;10973;46.706;12.340;2022-07-06T12:37:09;24.70;58.80
21622;DHT22;10973;46.706;12.340;2022-07-06T12:39:46;24.80;59.40
21622;DHT22;10973;46.706;12.340;2022-07-06T12:42:15;24.70;58.50
21622;DHT22;10973;46.706;12.340;2022-07-06T12:44:48;24.90;59.10
21622;DHT22;10973;46.706;12.340;2022-07-06T12:47:21;25.10;77.80
21622;DHT22;10973;46.706;12.340;2022-07-06T12:50:07;25.10;57.20
21622;DHT22;10973;46.706;12.340;2022-07-06T12:52:36;25.20;57.90
21622;DHT22;10973;46.706;12.340;2022-07-06T12:55:05;25.10;58.10
21622;DHT22;10973;46.706;12.340;2022-07-06T12:57:48;25.20;56.80
21622;DHT22;10973;46.706;12.340;2022-07-06T13:00:17;24.90;55.80
21622;DHT22;10973;46.706;12.340;2022-07-06T13:02:46;24.60;54.60
21622;DHT22;10973;46.706;12.340;2022-07-06T13:05:35;25.10;57.60
21622;DHT22;10973;46.706;12.340;2022-07-06T13:08:02;25.10;57.20
21622;DHT22;10973;46.706;12.340;2022-07-06T13:10:30;25.20;56.60
21622;DHT22;10973;46.706;12.340;2022-07-06T13:12:58;24.80;55.80
21622;DHT22;10973;46.706;12.340;2022-07-06T13:15:25;24.80;55.70
21622;DHT22;10973;46.706;12.340;2022-07-06T13:17:53;25.00;56.70
21622;DHT22;10973;46.706;12.340;2022-07-06T13:20:20;25.20;57.70
21622;DHT22;10973;46.706;12.340;2022-07-06T13:22:47;25.20;56.60
21622;DHT22;10973;46.706;12.340;2022-07-06T13:25:14;25.10;55.80
21622;DHT22;10973;46.706;12.340;2022-07-06T13:27:41;25.40;54.70
21622;DHT22;10973;46.706;12.340;2022-07-06T13:30:09;25.50;55.10
21622;DHT22;10973;46.706;12.340;2022-07-06T13:33:06;25.20;56.90
21622;DHT22;10973;46.706;12.340;2022-07-06T13:35:33;25.10;54.70
21622;DHT22;10973;46.706;12.340;2022-07-06T13:38:00;25.20;52.20
21622;DHT22;10973;46.706;12.340;2022-07-06T13:40:28;25.20;52.80
21622;DHT22;10973;46.706;12.340;2022-07-06T13:42:55;25.60;56.30
21622;DHT22;10973;46.706;12.340;2022-07-06T13:45:22;25.50;53.80
21622;DHT22;10973;46.706;12.340;2022-07-06T13:47:49;25.00;54.20
21622;DHT22;10973;46.706;12.340;2022-07-06T13:50:16;25.00;54.10
21622;DHT22;10973;46.706;12.340;2022-07-06T13:52:44;25.20;54.60
21622;DHT22;10973;46.706;12.340;2022-07-06T14:09:57;26.70;52.30
21622;DHT22;10973;46.706;12.340;2022-07-06T14:12:25;26.80;52.50
21622;DHT22;10973;46.706;12.340;2022-07-06T14:19:49;27.10;52.50
21622;DHT22;10973;46.706;12.340;2022-07-06T14:22:16;27.10;51.80
21622;DHT22;10973;46.706;12.340;2022-07-06T14:24:43;27.20;49.60
21622;DHT22;10973;46.706;12.340;2022-07-06T14:27:11;27.20;52.10
21622;DHT22;10973;46.706;12.340;2022-07-06T14:29:38;26.70;51.20
21622;DHT22;10973;46.706;12.340;2022-07-06T14:32:05;26.10;52.40
21622;DHT22;10973;46.706;12.340;2022-07-06T14:34:33;26.40;51.70
21622;DHT22;10973;46.706;12.340;2022-07-06T14:37:00;26.50;50.80
21622;DHT22;10973;46.706;12.340;2022-07-06T14:39:27;27.10;51.60
21622;DHT22;10973;46.706;12.340;2022-07-06T14:41:55;27.10;50.10
21622;DHT22;10973;46.706;12.340;2022-07-06T14:44:22;27.30;50.30
21622;DHT22;10973;46.706;12.340;2022-07-06T14:46:49;27.40;50.10
21622;DHT22;10973;46.706;12.340;2022-07-06T14:49:16;27.70;50.50
21622;DHT22;10973;46.706;12.340;2022-07-06T14:51:48;27.70;49.50
21622;DHT22;10973;46.706;12.340;2022-07-06T14:54:15;27.60;52.00
21622;DHT22;10973;46.706;12.340;2022-07-06T14:56:43;27.10;51.70
21622;DHT22;10973;46.706;12.340;2022-07-06T14:59:10;27.20;52.20
21622;DHT22;10973;46.706;12.340;2022-07-06T15:01:53;27.30;51.20
21622;DHT22;10973;46.706;12.340;2022-07-06T15:04:21;26.70;52.00
21622;DHT22;10973;46.706;12.340;2022-07-06T15:06:49;26.70;50.80
21622;DHT22;10973;46.706;12.340;2022-07-06T15:09:20;27.10;51.00
21622;DHT22;10973;46.706;12.340;2022-07-06T15:11:48;26.90;50.10
21622;DHT22;10973;46.706;12.340;2022-07-06T15:14:15;26.70;49.60
21622;DHT22;10973;46.706;12.340;2022-07-06T15:16:46;26.80;49.80
21622;DHT22;10973;46.706;12.340;2022-07-06T15:19:16;27.20;49.20
21622;DHT22;10973;46.706;12.340;2022-07-06T15:21:44;27.40;48.50
21622;DHT22;10973;46.706;12.340;2022-07-06T15:24:11;27.70;50.10
21622;DHT22;10973;46.706;12.340;2022-07-06T15:26:48;27.50;50.40
21622;DHT22;10973;46.706;12.340;2022-07-06T15:29:18;26.60;49.40
21622;DHT22;10973;46.706;12.340;2022-07-06T15:31:45;26.70;49.40
21622;DHT22;10973;46.706;12.340;2022-07-06T15:34:16;26.20;49.40
21622;DHT22;10973;46.706;12.340;2022-07-06T15:36:52;26.40;51.10
21622;DHT22;10973;46.706;12.340;2022-07-06T15:39:19;26.60;51.40
21622;DHT22;10973;46.706;12.340;2022-07-06T15:41:46;26.70;52.20
21622;DHT22;10973;46.706;12.340;2022-07-06T15:44:13;27.10;51.70
21622;DHT22;10973;46.706;12.340;2022-07-06T15:46:41;26.80;51.00
21622;DHT22;10973;46.706;12.340;2022-07-06T15:49:10;27.30;50.40
21622;DHT22;10973;46.706;12.340;2022-07-06T15:54:43;27.40;48.90
21622;DHT22;10973;46.706;12.340;2022-07-06T15:57:10;27.60;50.60
21622;DHT22;10973;46.706;12.340;2022-07-06T15:59:39;27.70;50.00
21622;DHT22;10973;46.706;12.340;2022-07-06T16:07:03;28.00;47.80
21622;DHT22;10973;46.706;12.340;2022-07-06T16:09:50;28.00;48.40
21622;DHT22;10973;46.706;12.340;2022-07-06T16:12:17;27.20;49.40
21622;DHT22;10973;46.706;12.340;2022-07-06T16:14:48;26.70;49.60
21622;DHT22;10973;46.706;12.340;2022-07-06T16:17:15;26.30;49.10
21622;DHT22;10973;46.706;12.340;2022-07-06T16:19:43;26.30;50.20
21622;DHT22;10973;46.706;12.340;2022-07-06T16:22:12;26.40;51.20
21622;DHT22;10973;46.706;12.340;2022-07-06T16:24:40;26.60;51.20
21622;DHT22;10973;46.706;12.340;2022-07-06T16:27:07;26.30;50.00
21622;DHT22;10973;46.706;12.340;2022-07-06T16:33:44;25.60;51.50
21622;DHT22;10973;46.706;12.340;2022-07-06T16:36:11;25.20;53.40
21622;DHT22;10973;46.706;12.340;2022-07-06T16:46:48;24.60;57.10
21622;DHT22;10973;46.706;12.340;2022-07-06T16:49:15;24.40;60.30
21622;DHT22;10973;46.706;12.340;2022-07-06T16:51:42;24.40;62.30
21622;DHT22;10973;46.706;12.340;2022-07-06T16:54:10;24.40;61.60
21622;DHT22;10973;46.706;12.340;2022-07-06T17:00:36;24.10;66.60
21622;DHT22;10973;46.706;12.340;2022-07-06T17:03:04;23.90;66.60
21622;DHT22;10973;46.706;12.340;2022-07-06T17:05:31;23.80;68.00
21622;DHT22;10973;46.706;12.340;2022-07-06T17:07:58;23.70;68.30
21622;DHT22;10973;46.706;12.340;2022-07-06T17:10:28;23.60;69.50
21622;DHT22;10973;46.706;12.340;2022-07-06T17:12:56;23.50;70.20
21622;DHT22;10973;46.706;12.340;2022-07-06T17:15:23;23.40;70.40
21622;DHT22;10973;46.706;12.340;2022-07-06T17:17:51;23.30;71.90
21622;DHT22;10973;46.706;12.340;2022-07-06T17:20:18;23.20;72.30
21622;DHT22;10973;46.706;12.340;2022-07-06T17:22:45;23.20;72.40
21622;DHT22;10973;46.706;12.340;2022-07-06T17:25:13;23.10;73.00
21622;DHT22;10973;46.706;12.340;2022-07-06T17:27:40;23.10;74.70
21622;DHT22;10973;46.706;12.340;2022-07-06T17:30:08;23.00;74.90
21622;DHT22;10973;46.706;12.340;2022-07-06T17:32:35;22.90;74.60
21622;DHT22;10973;46.706;12.340;2022-07-06T18:17:04;21.30;99.90
21622;DHT22;10973;46.706;12.340;2022-07-06T18:19:31;21.30;99.90
21622;DHT22;10973;46.706;12.340;2022-07-06T18:21:58;21.20;99.90
21622;DHT22;10973;46.706;12.340;2022-07-06T18:24:27;21.10;99.90
21622;DHT22;10973;46.706;12.340;2022-07-06T18:26:54;21.00;99.90
21622;DHT22;10973;46.706;12.340;2022-07-06T18:29:22;21.00;99.90
21622;DHT22;10973;46.706;12.340;2022-07-06T18:31:49;21.00;99.90
21622;DHT22;10973;46.706;12.340;2022-07-06T18:34:17;20.90;99.90
21622;DHT22;10973;46.706;12.340;2022-07-06T18:36:44;20.90;99.90
21622;DHT22;10973;46.706;12.340;2022-07-06T18:39:11;20.70;99.90
21622;DHT22;10973;46.706;12.340;2022-07-06T19:03:48;20.20;99.90
21622;DHT22;10973;46.706;12.340;2022-07-06T19:06:16;20.30;99.90
21622;DHT22;10973;46.706;12.340;2022-07-06T19:08:44;20.10;99.90
21622;DHT22;10973;46.706;12.340;2022-07-06T19:11:12;19.90;99.90
21622;DHT22;10973;46.706;12.340;2022-07-06T19:13:46;19.90;99.90
21622;DHT22;10973;46.706;12.340;2022-07-06T19:16:15;19.80;99.90
21622;DHT22;10973;46.706;12.340;2022-07-06T19:43:20;19.50;99.90
21622;DHT22;10973;46.706;12.340;2022-07-06T19:45:49;19.40;99.90
21622;DHT22;10973;46.706;12.340;2022-07-06T19:48:17;19.50;99.90
21622;DHT22;10973;46.706;12.340;2022-07-06T19:50:53;19.30;99.90
21622;DHT22;10973;46.706;12.340;2022-07-06T19:53:21;19.40;99.90
21622;DHT22;10973;46.706;12.340;2022-07-06T19:55:50;19.40;99.90
21622;DHT22;10973;46.706;12.340;2022-07-06T20:16:51;18.90;99.90
21622;DHT22;10973;46.706;12.340;2022-07-06T20:19:22;18.80;99.90
21622;DHT22;10973;46.706;12.340;2022-07-06T20:21:52;18.80;99.90
21622;DHT22;10973;46.706;12.340;2022-07-06T21:41:40;17.60;99.90
21622;DHT22;10973;46.706;12.340;2022-07-06T21:44:07;17.60;99.90
21622;DHT22;10973;46.706;12.340;2022-07-06T21:46:46;17.60;99.90
21622;DHT22;10973;46.706;12.340;2022-07-06T22:51:58;17.50;99.90
21622;DHT22;10973;46.706;12.340;2022-07-06T22:54:25;17.40;99.90
21622;DHT22;10973;46.706;12.340;2022-07-06T23:00:52;16.70;99.90
21622;DHT22;10973;46.706;12.340;2022-07-06T23:07:19;16.30;99.90
21622;DHT22;10973;46.706;12.340;2022-07-06T23:09:46;16.20;99.90
21622;DHT22;10973;46.706;12.340;2022-07-06T23:12:14;16.30;99.90
21622;DHT22;10973;46.706;12.340;2022-07-06T23:14:49;16.30;99.90
21622;DHT22;10973;46.706;12.340;2022-07-06T23:21:19;16.10;99.90
21622;DHT22;10973;46.706;12.340;2022-07-06T23:23:46;15.90;99.90
21622;DHT22;10973;46.706;12.340;2022-07-06T23:30:23;15.70;99.90
21622;DHT22;10973;46.706;12.340;2022-07-06T23:32:51;15.70;99.90
21622;DHT22;10973;46.706;12.340;2022-07-06T23:35:18;15.80;99.90
21622;DHT22;10973;46.706;12.340;2022-07-06T23:37:46;15.70;99.90
21622;DHT22;10973;46.706;12.340;2022-07-06T23:47:44;15.70;99.90
21622;DHT22;10973;46.706;12.340;2022-07-06T23:54:12;15.60;99.90
